createdAt,value
2022-08-16T00:02:22.202Z,31.52
2022-08-16T00:04:50.952Z,24.98
2022-08-16T00:07:17.812Z,27.15
2022-08-16T00:09:44.469Z,29.95
2022-08-16T00:12:11.206Z,28.50
2022-08-16T00:14:45.294Z,29.38
2022-08-16T00:17:18.699Z,32.20
2022-08-16T00:19:45.623Z,26.38
2022-08-16T00:22:15.267Z,28.88
2022-08-16T00:24:44.781Z,25.48
2022-08-16T00:27:13.267Z,30.65
2022-08-16T00:29:39.739Z,25.65
2022-08-16T00:32:08.453Z,31.92
2022-08-16T00:34:44.498Z,25.25
2022-08-16T00:37:20.817Z,31.35
2022-08-16T00:39:56.902Z,25.70
2022-08-16T00:42:30.734Z,23.20
2022-08-16T00:45:25.385Z,28.60
2022-08-16T00:47:52.945Z,26.50
2022-08-16T00:50:35.897Z,28.05
2022-08-16T00:53:05.574Z,28.50
2022-08-16T00:55:37.824Z,26.15
2022-08-16T00:58:04.809Z,27.85
2022-08-16T01:00:39.914Z,27.92
2022-08-16T01:03:11.645Z,30.02
2022-08-16T01:05:40.469Z,31.98
2022-08-16T01:08:36.021Z,29.83
2022-08-16T01:10:55.696Z,28.95
2022-08-16T01:13:29.144Z,30.58
2022-08-16T01:16:21.504Z,39.38
2022-08-16T01:18:58.770Z,45.78
2022-08-16T01:21:36.214Z,36.35
2022-08-16T01:24:51.870Z,25.52
2022-08-16T01:27:34.497Z,38.95
2022-08-16T01:30:20.659Z,25.95
2022-08-16T01:33:01.816Z,25.67
2022-08-16T01:35:39.733Z,27.05
2022-08-16T01:38:25.618Z,28.30
2022-08-16T01:41:02.003Z,27.35
2022-08-16T01:43:31.134Z,23.20
2022-08-16T01:46:29.247Z,28.15
2022-08-16T01:48:47.450Z,33.50
2022-08-16T01:51:17.898Z,35.88
2022-08-16T01:53:55.463Z,34.38
2022-08-16T01:56:25.223Z,36.97
2022-08-16T01:58:54.994Z,32.70
2022-08-16T02:01:22.372Z,31.33
2022-08-16T02:03:50.657Z,41.65
2022-08-16T02:06:33.505Z,23.80
2022-08-16T02:09:01.618Z,25.77
2022-08-16T02:11:47.401Z,32.33
2022-08-16T02:14:18.409Z,29.38
2022-08-16T02:16:47.836Z,27.67
2022-08-16T02:19:16.276Z,30.98
2022-08-16T02:22:09.231Z,29.38
2022-08-16T02:24:40.920Z,28.83
2022-08-16T02:27:09.438Z,25.35
2022-08-16T02:29:35.938Z,23.58
2022-08-16T02:32:48.825Z,27.42
2022-08-16T02:34:50.316Z,39.20
2022-08-16T02:37:21.081Z,24.85
2022-08-16T02:39:54.058Z,28.10
2022-08-16T02:42:21.349Z,27.83
2022-08-16T02:44:48.950Z,24.38
2022-08-16T02:47:25.209Z,21.77
2022-08-16T02:49:59.021Z,56.25
2022-08-16T02:52:43.769Z,25.90
2022-08-16T02:55:11.725Z,28.42
2022-08-16T02:57:42.500Z,28.00
2022-08-16T03:00:34.321Z,25.58
2022-08-16T03:03:01.427Z,33.53
2022-08-16T03:05:31.726Z,29.95
2022-08-16T03:07:59.960Z,30.20
2022-08-16T03:10:33.538Z,28.30
2022-08-16T03:13:01.757Z,24.42
2022-08-16T03:15:30.158Z,25.83
2022-08-16T03:17:57.574Z,24.73
2022-08-16T03:20:32.166Z,26.98
2022-08-16T03:22:59.587Z,21.75
2022-08-16T03:25:40.877Z,22.52
2022-08-16T03:28:11.801Z,27.90
2022-08-16T03:30:38.982Z,30.60
2022-08-16T03:33:05.692Z,26.60
2022-08-16T03:35:37.150Z,37.03
2022-08-16T03:38:32.807Z,24.23
2022-08-16T03:40:56.864Z,22.83
2022-08-16T03:43:51.968Z,32.42
2022-08-16T03:46:11.982Z,32.97
2022-08-16T03:48:58.491Z,34.47
2022-08-16T03:51:25.481Z,24.15
2022-08-16T03:54:00.738Z,25.77
2022-08-16T03:56:28.346Z,26.05
2022-08-16T03:58:57.502Z,24.30
2022-08-16T04:01:29.351Z,23.83
2022-08-16T04:03:56.894Z,24.20
2022-08-16T04:06:23.576Z,21.00
2022-08-16T04:08:50.169Z,23.10
2022-08-16T04:11:17.632Z,23.85
2022-08-16T04:14:01.681Z,23.88
2022-08-16T04:16:32.408Z,33.40
2022-08-16T04:19:02.543Z,27.60
2022-08-16T04:21:35.983Z,22.95
2022-08-16T04:24:13.593Z,25.85
2022-08-16T04:26:46.080Z,31.90
2022-08-16T04:29:17.179Z,22.80
2022-08-16T04:31:56.399Z,24.58
2022-08-16T04:34:27.403Z,29.02
2022-08-16T04:36:54.714Z,27.00
2022-08-16T04:39:23.810Z,25.35
2022-08-16T04:41:56.693Z,28.45
2022-08-16T04:44:52.707Z,25.55
2022-08-16T04:47:23.839Z,23.83
2022-08-16T04:49:52.567Z,29.20
2022-08-16T04:52:33.790Z,26.20
2022-08-16T04:55:12.066Z,33.58
2022-08-16T04:57:39.090Z,30.85
2022-08-16T05:00:30.284Z,31.23
2022-08-16T05:02:58.879Z,29.13
2022-08-16T05:05:25.826Z,23.58
2022-08-16T05:08:00.102Z,22.92
2022-08-16T05:10:28.434Z,24.83
2022-08-16T05:12:59.221Z,26.33
2022-08-16T05:15:26.247Z,24.60
2022-08-16T05:17:58.796Z,21.98
2022-08-16T05:20:39.535Z,25.23
2022-08-16T05:23:15.086Z,24.50
2022-08-16T05:25:47.845Z,21.95
2022-08-16T05:28:16.419Z,28.80
2022-08-16T05:30:43.421Z,28.55
2022-08-16T05:33:16.381Z,23.38
2022-08-16T05:35:43.872Z,24.58
2022-08-16T05:38:30.886Z,21.40
2022-08-16T05:41:00.075Z,28.10
2022-08-16T05:43:27.392Z,20.83
2022-08-16T05:46:00.275Z,23.63
2022-08-16T05:48:27.402Z,23.83
2022-08-16T05:50:54.133Z,22.55
2022-08-16T05:53:20.773Z,21.92
2022-08-16T05:55:53.461Z,23.80
2022-08-16T05:58:33.252Z,23.33
2022-08-16T06:01:00.054Z,24.42
2022-08-16T06:03:29.566Z,24.35
2022-08-16T06:05:56.560Z,25.98
2022-08-16T06:11:11.070Z,26.92
2022-08-16T06:16:09.239Z,24.30
2022-08-16T06:18:45.178Z,23.27
2022-08-16T06:21:13.041Z,21.63
2022-08-16T06:23:49.715Z,18.33
2022-08-16T06:26:21.384Z,18.23
2022-08-16T06:28:48.121Z,17.92
2022-08-16T06:31:17.011Z,16.17
2022-08-16T06:33:44.725Z,16.48
2022-08-16T06:36:14.280Z,15.07
2022-08-16T06:38:55.907Z,16.70
2022-08-16T06:41:27.235Z,16.48
2022-08-16T06:43:54.408Z,20.08
2022-08-16T06:46:23.559Z,16.02
2022-08-16T06:48:58.621Z,16.45
2022-08-16T06:51:25.085Z,16.08
2022-08-16T06:54:14.174Z,13.55
2022-08-16T06:56:42.405Z,15.45
2022-08-16T06:59:09.319Z,14.88
2022-08-16T07:01:43.469Z,13.00
2022-08-16T07:04:12.967Z,13.25
2022-08-16T07:06:58.914Z,14.73
2022-08-16T07:09:26.327Z,12.75
2022-08-16T07:11:56.411Z,14.43
2022-08-16T07:14:30.485Z,14.68
2022-08-16T07:16:59.328Z,14.35
2022-08-16T07:20:04.035Z,17.13
2022-08-16T07:22:52.434Z,12.50
2022-08-16T07:25:06.024Z,13.13
2022-08-16T07:27:33.667Z,12.88
2022-08-16T07:30:38.870Z,13.95
2022-08-16T07:32:53.471Z,14.50
2022-08-16T07:35:20.140Z,14.18
2022-08-16T07:37:46.720Z,15.63
2022-08-16T07:40:13.796Z,13.20
2022-08-16T07:42:40.566Z,13.98
2022-08-16T07:45:10.384Z,16.10
2022-08-16T07:47:37.070Z,11.80
2022-08-16T07:50:05.349Z,14.25
2022-08-16T07:52:34.249Z,14.52
2022-08-16T07:55:00.712Z,12.07
2022-08-16T07:57:27.770Z,11.50
2022-08-16T07:59:56.981Z,13.32
2022-08-16T08:02:27.511Z,14.85
2022-08-16T08:04:55.817Z,15.20
2022-08-16T08:07:23.186Z,14.80
2022-08-16T08:09:55.206Z,11.70
2022-08-16T08:12:43.705Z,12.13
2022-08-16T08:15:10.760Z,13.35
2022-08-16T08:18:41.449Z,13.32
2022-08-16T08:20:28.473Z,11.18
2022-08-16T08:23:00.706Z,11.70
2022-08-16T08:25:53.539Z,11.13
2022-08-16T08:28:16.368Z,11.10
2022-08-16T08:30:51.319Z,9.48
2022-08-16T08:33:27.437Z,11.35
2022-08-16T08:36:00.695Z,12.93
2022-08-16T08:38:45.009Z,12.75
2022-08-16T08:41:18.962Z,11.27
2022-08-16T08:43:50.420Z,11.27
2022-08-16T08:46:21.380Z,10.77
2022-08-16T08:48:59.503Z,9.40
2022-08-16T08:51:27.560Z,10.82
2022-08-16T08:53:58.785Z,11.45
2022-08-16T08:56:25.930Z,9.63
2022-08-16T08:58:58.196Z,10.18
2022-08-16T09:01:36.469Z,13.10
2022-08-16T09:06:43.693Z,9.77
2022-08-16T09:09:17.211Z,12.10
2022-08-16T09:11:47.240Z,9.68
2022-08-16T09:14:23.905Z,10.70
2022-08-16T09:17:02.330Z,12.25
2022-08-16T09:19:34.178Z,12.35
2022-08-16T09:22:01.562Z,10.38
2022-08-16T09:24:52.127Z,9.25
2022-08-16T09:27:14.804Z,9.48
2022-08-16T09:29:45.041Z,10.55
2022-08-16T09:34:58.395Z,9.25
2022-08-16T09:37:29.685Z,11.10
2022-08-16T09:39:59.696Z,8.05
2022-08-16T09:42:28.410Z,10.60
2022-08-16T09:45:10.808Z,10.25
2022-08-16T09:47:57.425Z,10.20
2022-08-16T09:50:37.055Z,11.55
2022-08-16T09:53:17.617Z,11.57
2022-08-16T09:55:48.988Z,9.27
2022-08-16T09:58:41.821Z,10.98
2022-08-16T10:01:04.590Z,12.48
2022-08-16T10:03:31.618Z,10.45
2022-08-16T10:05:58.312Z,11.68
2022-08-16T10:08:26.010Z,9.18
2022-08-16T10:11:12.139Z,10.05
2022-08-16T10:13:39.560Z,11.13
2022-08-16T10:19:00.543Z,13.10
2022-08-16T10:21:24.678Z,9.65
2022-08-16T10:23:55.722Z,12.45
2022-08-16T10:27:16.313Z,13.48
2022-08-16T10:29:20.003Z,10.35
2022-08-16T10:31:53.524Z,9.18
2022-08-16T10:34:31.947Z,10.57
2022-08-16T10:37:02.519Z,11.82
2022-08-16T10:39:40.647Z,10.00
2022-08-16T10:42:08.761Z,9.20
2022-08-16T10:44:35.492Z,11.07
2022-08-16T10:47:02.361Z,9.00
2022-08-16T10:49:29.661Z,10.18
2022-08-16T10:52:02.991Z,12.55
2022-08-16T10:54:59.749Z,12.00
2022-08-16T10:57:32.984Z,11.27
2022-08-16T11:00:01.185Z,9.13
2022-08-16T11:02:58.678Z,10.20
2022-08-16T11:05:16.718Z,8.80
2022-08-16T11:07:52.299Z,8.32
2022-08-16T11:19:05.212Z,8.93
2022-08-16T11:22:11.133Z,8.50
2022-08-16T11:24:41.595Z,8.07
2022-08-16T11:27:23.271Z,8.73
2022-08-16T11:29:53.399Z,8.68
2022-08-16T11:32:32.418Z,9.63
2022-08-16T11:35:11.176Z,8.75
2022-08-16T11:40:46.986Z,8.73
2022-08-16T11:43:23.115Z,11.25
2022-08-16T11:45:53.654Z,10.27
2022-08-16T11:48:22.057Z,9.18
2022-08-16T11:50:48.645Z,9.20
2022-08-16T11:53:15.302Z,9.77
2022-08-16T11:55:44.133Z,9.15
2022-08-16T11:58:12.147Z,11.23
2022-08-16T12:00:51.872Z,9.13
2022-08-16T12:03:34.712Z,9.88
2022-08-16T12:06:10.932Z,11.13
2022-08-16T12:08:52.100Z,11.02
2022-08-16T12:11:18.949Z,11.25
2022-08-16T12:13:49.609Z,8.30
2022-08-16T12:16:20.488Z,12.57
2022-08-16T12:21:15.048Z,8.25
2022-08-16T12:23:42.855Z,11.60
2022-08-16T12:26:10.639Z,11.95
2022-08-16T12:28:54.147Z,9.18
2022-08-16T12:31:26.195Z,12.05
2022-08-16T12:33:54.166Z,9.48
2022-08-16T12:36:24.520Z,10.48
2022-08-16T12:38:51.104Z,10.82
2022-08-16T12:41:24.588Z,9.43
2022-08-16T12:43:52.756Z,9.68
2022-08-16T12:46:24.456Z,10.57
2022-08-16T12:49:00.151Z,10.30
2022-08-16T12:51:57.992Z,10.35
2022-08-16T12:54:21.966Z,13.82
2022-08-16T12:56:50.438Z,10.60
2022-08-16T12:59:20.181Z,9.52
2022-08-16T13:01:47.789Z,9.77
2022-08-16T13:04:20.558Z,9.77
2022-08-16T13:06:49.911Z,8.95
2022-08-16T13:09:20.966Z,7.43
2022-08-16T13:12:19.619Z,7.47
2022-08-16T13:14:49.988Z,9.07
2022-08-16T13:17:23.680Z,8.07
2022-08-16T13:20:11.193Z,8.27
2022-08-16T13:22:41.767Z,8.13
2022-08-16T13:25:09.405Z,8.82
2022-08-16T13:28:02.244Z,9.20
2022-08-16T13:30:36.895Z,8.05
2022-08-16T13:33:11.228Z,9.13
2022-08-16T13:35:42.812Z,8.90
2022-08-16T13:38:10.406Z,11.07
2022-08-16T13:40:49.034Z,9.77
2022-08-16T13:43:18.189Z,8.63
2022-08-16T13:45:45.171Z,11.13
2022-08-16T13:48:21.833Z,8.00
2022-08-16T13:50:53.862Z,8.68
2022-08-16T13:53:24.421Z,9.90
2022-08-16T13:55:58.983Z,9.18
2022-08-16T13:58:35.186Z,9.50
2022-08-16T14:01:04.587Z,9.43
2022-08-16T14:03:37.145Z,7.35
2022-08-16T14:06:04.057Z,8.20
2022-08-16T14:08:30.551Z,10.80
2022-08-16T14:10:57.054Z,12.10
2022-08-16T14:13:24.037Z,9.48
2022-08-16T14:15:51.264Z,9.57
2022-08-16T14:18:20.640Z,8.38
2022-08-16T14:20:48.839Z,10.73
2022-08-16T14:23:21.857Z,8.00
2022-08-16T14:25:53.794Z,8.20
2022-08-16T14:28:23.495Z,8.05
2022-08-16T14:30:50.414Z,7.53
2022-08-16T14:33:18.436Z,9.98
2022-08-16T14:35:48.738Z,7.63
2022-08-16T14:38:18.814Z,11.65
2022-08-16T14:40:51.038Z,8.75
2022-08-16T14:45:50.351Z,7.40
2022-08-16T14:48:25.158Z,9.57
2022-08-16T14:50:53.311Z,10.25
2022-08-16T14:53:20.130Z,7.32
2022-08-16T14:55:46.986Z,6.57
2022-08-16T14:58:19.351Z,9.70
2022-08-16T15:00:50.463Z,9.52
2022-08-16T15:03:18.739Z,7.60
2022-08-16T15:05:48.269Z,7.85
2022-08-16T15:08:17.736Z,8.60
2022-08-16T15:10:47.173Z,7.65
2022-08-16T15:13:14.955Z,9.27
2022-08-16T15:15:42.394Z,6.53
2022-08-16T15:18:11.923Z,7.15
2022-08-16T15:20:41.153Z,6.60
2022-08-16T15:23:10.020Z,8.85
2022-08-16T15:25:47.383Z,8.60
2022-08-16T15:28:32.161Z,6.20
2022-08-16T15:31:03.973Z,9.73
2022-08-16T15:33:33.009Z,8.18
2022-08-16T15:36:00.521Z,8.52
2022-08-16T15:38:57.529Z,9.77
2022-08-16T15:41:33.307Z,9.55
2022-08-16T15:44:04.766Z,6.90
2022-08-16T15:46:54.717Z,8.52
2022-08-16T15:49:22.635Z,9.20
2022-08-16T15:51:51.707Z,7.65
2022-08-16T15:54:30.408Z,8.57
2022-08-16T15:57:04.352Z,7.22
2022-08-16T15:59:49.183Z,7.38
2022-08-16T16:02:29.434Z,9.77
2022-08-16T16:05:00.856Z,9.65
2022-08-16T16:07:30.026Z,6.55
2022-08-16T16:09:56.665Z,9.07
2022-08-16T16:15:16.059Z,7.05
2022-08-16T16:20:14.543Z,8.07
2022-08-16T16:22:43.280Z,10.05
2022-08-16T16:25:09.876Z,8.98
2022-08-16T16:27:36.434Z,8.05
2022-08-16T16:30:32.538Z,8.80
2022-08-16T16:32:51.730Z,6.15
2022-08-16T16:35:18.638Z,8.25
2022-08-16T16:37:45.174Z,8.35
2022-08-16T16:40:12.810Z,9.85
2022-08-16T16:42:44.592Z,9.48
2022-08-16T16:45:11.526Z,8.30
2022-08-16T16:47:41.641Z,10.43
2022-08-16T16:50:10.120Z,8.70
2022-08-16T16:52:44.830Z,7.82
2022-08-16T16:55:14.730Z,6.95
2022-08-16T16:58:00.939Z,7.72
2022-08-16T17:00:38.377Z,6.72
2022-08-16T17:03:06.347Z,8.27
2022-08-16T17:05:57.330Z,7.35
2022-08-16T17:08:30.916Z,8.65
2022-08-16T17:10:57.707Z,8.13
2022-08-16T17:13:25.087Z,6.25
2022-08-16T17:15:54.098Z,6.55
2022-08-16T17:19:15.690Z,6.80
2022-08-16T17:21:08.944Z,6.18
2022-08-16T17:23:58.389Z,7.97
2022-08-16T17:26:29.900Z,8.70
2022-08-16T17:29:00.007Z,7.88
2022-08-16T17:31:38.519Z,10.05
2022-08-16T17:34:29.333Z,10.57
2022-08-16T17:39:28.675Z,11.20
2022-08-16T17:39:59.592Z,13.88
2022-08-16T17:42:27.476Z,8.10
2022-08-16T17:44:54.562Z,11.80
2022-08-16T17:47:21.946Z,10.15
2022-08-16T17:49:48.445Z,9.30
2022-08-16T17:52:17.559Z,10.65
2022-08-16T17:54:44.916Z,10.23
2022-08-16T17:57:12.948Z,11.10
2022-08-16T17:59:41.290Z,8.93
2022-08-16T18:02:44.240Z,8.73
2022-08-16T18:04:56.360Z,8.35
2022-08-16T18:07:23.186Z,9.23
2022-08-16T18:09:50.128Z,7.13
2022-08-16T18:12:44.831Z,8.70
2022-08-16T18:15:15.831Z,10.73
2022-08-16T18:17:43.851Z,8.20
2022-08-16T18:20:33.511Z,9.25
2022-08-16T18:23:13.864Z,8.05
2022-08-16T18:25:44.261Z,11.07
2022-08-16T18:28:11.780Z,10.10
2022-08-16T18:30:38.823Z,9.35
2022-08-16T18:33:05.693Z,9.18
2022-08-16T18:35:32.282Z,7.53
2022-08-16T18:37:58.754Z,9.02
2022-08-16T18:40:25.970Z,10.07
2022-08-16T18:42:53.494Z,10.60
2022-08-16T18:45:20.601Z,12.23
2022-08-16T18:47:47.061Z,8.07
2022-08-16T18:50:13.601Z,8.63
2022-08-16T18:52:48.528Z,9.10
2022-08-16T18:55:15.167Z,10.02
2022-08-16T18:57:42.191Z,8.52
2022-08-16T19:00:12.328Z,9.43
2022-08-16T19:02:56.995Z,9.07
2022-08-16T19:05:30.775Z,9.27
2022-08-16T19:07:57.988Z,9.23
2022-08-16T19:10:24.584Z,12.18
2022-08-16T19:12:51.125Z,12.55
2022-08-16T19:15:21.693Z,9.02
2022-08-16T19:17:48.424Z,10.25
2022-08-16T19:20:18.597Z,10.48
2022-08-16T19:23:05.071Z,9.15
2022-08-16T19:25:46.248Z,10.70
2022-08-16T19:28:46.656Z,10.10
2022-08-16T19:31:05.258Z,10.30
2022-08-16T19:33:32.193Z,8.98
2022-08-16T19:35:58.807Z,8.60
2022-08-16T19:38:25.337Z,9.05
2022-08-16T19:40:52.011Z,9.82
2022-08-16T19:43:20.983Z,11.60
2022-08-16T19:45:48.324Z,10.95
2022-08-16T19:48:15.113Z,16.83
2022-08-16T19:50:43.198Z,8.23
2022-08-16T19:53:14.696Z,10.65
2022-08-16T19:55:47.344Z,7.88
2022-08-16T19:58:15.355Z,9.88
2022-08-16T20:00:43.502Z,10.52
2022-08-16T20:03:13.999Z,8.43
2022-08-16T20:05:42.699Z,8.10
2022-08-16T20:08:11.355Z,8.55
2022-08-16T20:10:39.045Z,9.57
2022-08-16T20:13:21.670Z,10.13
2022-08-16T20:15:49.668Z,9.20
2022-08-16T20:18:24.434Z,10.02
2022-08-16T20:20:52.460Z,9.80
2022-08-16T20:23:24.797Z,11.60
2022-08-16T20:25:55.848Z,8.93
2022-08-16T20:28:51.651Z,8.55
2022-08-16T20:31:11.422Z,11.23
2022-08-16T20:33:38.125Z,10.27
2022-08-16T20:36:07.250Z,10.88
2022-08-16T20:38:35.208Z,9.50
2022-08-16T20:41:02.126Z,11.65
2022-08-16T20:43:28.669Z,9.38
2022-08-16T20:45:55.348Z,10.68
2022-08-16T20:48:22.034Z,10.18
2022-08-16T20:50:48.532Z,10.10
2022-08-16T20:53:15.054Z,11.60
2022-08-16T20:55:42.493Z,12.02
2022-08-16T20:58:09.119Z,11.82
2022-08-16T21:00:35.608Z,11.10
2022-08-16T21:03:07.540Z,11.15
2022-08-16T21:05:34.290Z,12.50
2022-08-16T21:08:00.835Z,9.05
2022-08-16T21:10:27.300Z,9.45
2022-08-16T21:13:01.813Z,10.45
2022-08-16T21:15:30.783Z,12.02
2022-08-16T21:17:58.338Z,13.43
2022-08-16T21:20:27.845Z,11.57
2022-08-16T21:22:57.360Z,12.73
2022-08-16T21:25:24.895Z,9.45
2022-08-16T21:28:36.177Z,11.38
2022-08-16T21:30:39.785Z,9.43
2022-08-16T21:33:12.302Z,9.40
2022-08-16T21:35:41.430Z,10.60
2022-08-16T21:38:29.132Z,10.63
2022-08-16T21:40:58.949Z,11.00
2022-08-16T21:43:25.517Z,11.95
2022-08-16T21:45:55.022Z,11.85
2022-08-16T21:48:35.092Z,12.27
2022-08-16T21:51:11.209Z,11.32
2022-08-16T21:53:37.964Z,9.57
2022-08-16T21:56:05.843Z,12.40
2022-08-16T21:58:34.386Z,10.25
2022-08-16T22:01:02.975Z,11.07
2022-08-16T22:03:33.388Z,12.05
2022-08-16T22:06:11.771Z,11.60
2022-08-16T22:08:50.618Z,12.32
2022-08-16T22:11:23.560Z,11.13
2022-08-16T22:13:59.026Z,11.80
2022-08-16T22:16:32.605Z,10.20
2022-08-16T22:19:00.263Z,14.65
2022-08-16T22:21:27.182Z,10.32
2022-08-16T22:23:56.701Z,11.23
2022-08-16T22:26:30.903Z,21.55
2022-08-16T22:29:04.393Z,10.05
2022-08-16T22:31:31.337Z,11.18
2022-08-16T22:33:58.083Z,12.10
2022-08-16T22:36:28.503Z,14.25
2022-08-16T22:39:01.941Z,13.00
2022-08-16T22:41:31.775Z,14.10
2022-08-16T22:43:59.507Z,11.95
2022-08-16T22:46:26.265Z,17.92
2022-08-16T22:48:52.923Z,11.80
2022-08-16T22:51:21.060Z,12.02
2022-08-16T22:53:49.105Z,12.95
2022-08-16T22:56:17.512Z,11.75
2022-08-16T22:58:45.173Z,11.40
2022-08-16T23:01:13.497Z,13.40
2022-08-16T23:03:41.195Z,17.80
2022-08-16T23:06:09.211Z,14.93
2022-08-16T23:08:40.583Z,14.15
2022-08-16T23:11:14.205Z,13.55
2022-08-16T23:13:49.978Z,11.73
2022-08-16T23:16:32.262Z,14.00
2022-08-16T23:19:05.251Z,14.27
2022-08-16T23:21:32.235Z,12.88
2022-08-16T23:23:58.742Z,12.75
2022-08-16T23:26:46.082Z,13.10
2022-08-16T23:29:21.184Z,12.18
2022-08-16T23:31:53.645Z,12.55
2022-08-16T23:34:21.536Z,13.23
2022-08-16T23:36:48.006Z,12.02
2022-08-16T23:39:14.634Z,13.70
2022-08-16T23:41:41.139Z,14.35
2022-08-16T23:44:56.088Z,13.23
2022-08-16T23:46:54.210Z,12.50
2022-08-16T23:49:59.137Z,15.02
2022-08-16T23:52:09.451Z,13.65
2022-08-16T23:54:36.355Z,14.93
2022-08-16T23:57:03.396Z,13.65
2022-08-16T23:59:30.096Z,12.52
